Time;durP1;ratioP1;P1;durP2;ratioP2;P2;SDS_P1;SDS_P2;PMS_P1;PMS_P2;Temp;Humidity;BMP_temperature;BMP_pressure;BME280_temperature;BME280_humidity;BME280_pressure;Samples;Min_cycle;Max_cycle;Signal;HPM_P1;HPM_P2
2023/02/07 00:00:09;;;;;;;31.13;14.82;;;;;;;-0.56;100.00;102379.38;5017917;28;20025;-73
2023/02/07 00:02:35;;;;;;;33.53;14.40;;;;;;;-0.61;100.00;102389.09;5047613;28;20044;-73
2023/02/07 00:05:00;;;;;;;34.78;14.25;;;;;;;-0.59;100.00;102382.44;5052293;28;20033;-73
2023/02/07 00:07:26;;;;;;;28.52;12.93;;;;;;;-0.68;100.00;102378.88;5037674;28;20045;-73
2023/02/07 00:09:51;;;;;;;30.02;13.00;;;;;;;-0.66;100.00;102383.34;5024545;28;20083;-73
2023/02/07 00:12:17;;;;;;;27.23;12.50;;;;;;;-0.68;100.00;102384.34;5016892;28;20028;-73
2023/02/07 00:14:42;;;;;;;28.48;11.82;;;;;;;-0.72;100.00;102384.88;4989009;28;20025;-73
2023/02/07 00:17:08;;;;;;;26.90;12.07;;;;;;;-0.73;100.00;102377.72;5052965;28;20035;-73
2023/02/07 00:19:33;;;;;;;25.70;10.77;;;;;;;-0.75;100.00;102377.91;5005404;28;20036;-73
2023/02/07 00:21:59;;;;;;;31.45;12.27;;;;;;;-0.78;100.00;102372.78;5048809;28;20029;-73
2023/02/07 00:24:24;;;;;;;31.02;12.55;;;;;;;-0.85;100.00;102365.47;5035327;28;20037;-73
2023/02/07 00:26:51;;;;;;;28.52;11.18;;;;;;;-0.85;100.00;102371.78;5035153;28;20036;-73
2023/02/07 00:29:17;;;;;;;21.58;10.50;;;;;;;-0.86;100.00;102364.63;5021904;28;20029;-73
2023/02/07 00:31:43;;;;;;;26.73;11.80;;;;;;;-0.92;100.00;102362.56;5046636;28;20033;-73
2023/02/07 00:34:09;;;;;;;24.00;10.98;;;;;;;-0.95;100.00;102361.06;5017511;28;20031;-73
2023/02/07 00:36:35;;;;;;;25.23;11.13;;;;;;;-0.94;100.00;102351.00;5013348;28;20075;-73
2023/02/07 00:39:11;;;;;;;27.63;11.38;;;;;;;-1.02;100.00;102351.00;5045562;28;20110;-73
2023/02/07 00:41:37;;;;;;;27.75;11.00;;;;;;;-1.01;100.00;102350.81;5037691;28;20021;-73
2023/02/07 00:44:03;;;;;;;25.88;11.35;;;;;;;-1.02;100.00;102351.00;5017648;28;20541;-73
2023/02/07 00:46:28;;;;;;;22.10;9.82;;;;;;;-1.05;100.00;102343.16;5033760;28;20031;-73
2023/02/07 00:48:54;;;;;;;28.90;11.50;;;;;;;-1.07;100.00;102347.94;5034979;28;20533;-73
2023/02/07 00:51:19;;;;;;;22.98;10.73;;;;;;;-1.10;100.00;102353.75;5046620;28;20033;-73
2023/02/07 00:53:46;;;;;;;23.95;11.48;;;;;;;-1.09;100.00;102350.81;5046116;28;20029;-73
2023/02/07 00:56:12;;;;;;;23.35;9.38;;;;;;;-1.08;100.00;102354.44;5017267;28;20021;-73
2023/02/07 00:58:38;;;;;;;23.73;9.98;;;;;;;-1.14;100.00;102353.25;4984716;28;20046;-73
2023/02/07 01:01:05;;;;;;;22.50;10.40;;;;;;;-1.14;100.00;102351.34;5033410;28;20493;-73
2023/02/07 01:03:30;;;;;;;22.05;10.20;;;;;;;-1.15;100.00;102349.63;5055269;28;20111;-73
2023/02/07 01:05:56;;;;;;;28.13;10.95;;;;;;;-1.21;100.00;102352.22;5017699;28;20083;-73
2023/02/07 01:08:21;;;;;;;26.85;9.18;;;;;;;-1.21;100.00;102350.31;5033799;28;20025;-73
2023/02/07 01:10:47;;;;;;;29.70;10.27;;;;;;;-1.16;100.00;102341.66;5034720;28;20033;-73
2023/02/07 01:13:12;;;;;;;25.95;10.55;;;;;;;-1.16;100.00;102347.09;5033588;28;20623;-73
2023/02/07 01:15:39;;;;;;;29.45;10.27;;;;;;;-1.18;100.00;102333.63;5030134;28;20025;-73
2023/02/07 01:18:05;;;;;;;21.70;10.13;;;;;;;-1.20;100.00;102332.97;5028483;28;20029;-73
2023/02/07 01:20:30;;;;;;;23.27;9.90;;;;;;;-1.24;100.00;102336.19;5030677;28;20040;-73
2023/02/07 01:22:56;;;;;;;24.10;10.25;;;;;;;-1.33;100.00;102327.19;5017303;28;20083;-73
2023/02/07 01:25:21;;;;;;;20.80;9.90;;;;;;;-1.35;100.00;102327.34;5036009;28;20642;-73
2023/02/07 01:27:47;;;;;;;22.83;9.48;;;;;;;-1.34;100.00;102328.19;5032883;28;20036;-73
2023/02/07 01:30:12;;;;;;;22.77;9.65;;;;;;;-1.32;100.00;102333.47;5015752;28;20048;-73
2023/02/07 01:32:38;;;;;;;23.55;9.32;;;;;;;-1.35;100.00;102319.16;5057039;28;20049;-73
2023/02/07 01:35:03;;;;;;;27.20;10.00;;;;;;;-1.39;100.00;102331.44;5042699;28;20033;-73
2023/02/07 01:37:29;;;;;;;26.05;9.10;;;;;;;-1.36;100.00;102335.69;5038799;28;20037;-73
2023/02/07 01:39:54;;;;;;;21.60;9.15;;;;;;;-1.38;100.00;102337.72;5013903;28;20061;-73
2023/02/07 01:42:21;;;;;;;24.48;9.02;;;;;;;-1.37;100.00;102336.69;5020484;28;20053;-73
2023/02/07 01:44:49;;;;;;;21.10;8.40;;;;;;;-1.36;100.00;102347.44;5054631;28;20033;-73
2023/02/07 01:47:20;;;;;;;24.02;8.48;;;;;;;-1.34;100.00;102352.72;5038475;28;20478;-73
2023/02/07 01:49:46;;;;;;;21.20;8.95;;;;;;;-1.34;100.00;102360.88;5007178;28;20021;-73
2023/02/07 01:52:15;;;;;;;22.85;8.60;;;;;;;-1.37;100.00;102359.34;5038555;28;20032;-73
2023/02/07 01:54:42;;;;;;;22.73;8.20;;;;;;;-1.36;100.00;102358.34;5052757;28;20085;-73
2023/02/07 01:57:08;;;;;;;20.98;8.15;;;;;;;-1.37;100.00;102356.63;5011544;28;20026;-73
2023/02/07 01:59:34;;;;;;;24.50;9.13;;;;;;;-1.40;100.00;102356.97;5033439;28;20486;-73
2023/02/07 02:02:01;;;;;;;27.45;9.18;;;;;;;-1.43;100.00;102359.19;5014875;28;20111;-73
2023/02/07 02:04:26;;;;;;;21.13;8.95;;;;;;;-1.45;100.00;102347.59;5038280;28;20033;-73
2023/02/07 02:06:52;;;;;;;21.23;9.52;;;;;;;-1.48;100.00;102353.41;5036544;28;20490;-72
2023/02/07 02:09:17;;;;;;;26.33;9.50;;;;;;;-1.51;100.00;102349.13;5036605;28;20041;-73
2023/02/07 02:12:04;;;;;;;21.88;9.07;;;;;;;-1.48;100.00;102353.41;5047763;28;20029;-73
2023/02/07 02:14:58;;;;;;;23.92;9.93;;;;;;;-1.48;100.00;102353.41;5048262;28;20043;-73
2023/02/07 02:17:31;;;;;;;20.85;9.40;;;;;;;-1.48;100.00;102353.41;5074527;28;20056;-73
2023/02/07 02:20:12;;;;;;;26.70;9.23;;;;;;;-1.58;100.00;102348.13;5036139;28;20040;-72
2023/02/07 02:22:55;;;;;;;25.30;9.80;;;;;;;-1.61;100.00;102352.03;5054500;28;20172;-73
2023/02/07 02:25:33;;;;;;;26.58;11.50;;;;;;;-1.64;100.00;102355.09;5040999;28;20512;-73
2023/02/07 02:28:53;;;;;;;28.30;11.02;;;;;;;-1.66;100.00;102359.84;5047796;28;20033;-73
2023/02/07 02:31:48;;;;;;;31.63;10.98;;;;;;;-1.73;100.00;102345.19;5045709;28;20036;-73
2023/02/07 02:34:20;;;;;;;29.42;10.82;;;;;;;-1.78;100.00;102342.13;5014421;28;20604;-73
2023/02/07 02:36:51;;;;;;;;;;;;;;;-1.77;100.00;102329.38;5040388;28;20045;-73
2023/02/07 02:39:29;;;;;;;33.05;12.45;;;;;;;-1.75;100.00;102332.78;5036040;28;20336;-73
2023/02/07 02:42:00;;;;;;;31.77;12.77;;;;;;;-1.84;100.00;102326.44;5030938;28;20067;-73
2023/02/07 02:44:30;;;;;;;31.58;11.55;;;;;;;-1.82;100.00;102322.53;5010035;28;20052;-73
2023/02/07 02:46:56;;;;;;;25.38;10.45;;;;;;;-1.81;100.00;102329.72;5026585;28;20041;-73
2023/02/07 02:49:21;;;;;;;26.90;11.43;;;;;;;-1.76;100.00;102331.06;5042118;28;20040;-73
2023/02/07 02:51:49;;;;;;;23.80;10.52;;;;;;;-1.76;100.00;102329.19;5019409;28;20034;-73
2023/02/07 02:54:37;;;;;;;22.75;9.52;;;;;;;-1.73;100.00;102344.34;5019068;28;20120;-73
2023/02/07 02:57:08;;;;;;;22.80;9.40;;;;;;;-1.74;100.00;102339.94;5019173;28;20432;-73
2023/02/07 02:59:43;;;;;;;23.15;8.73;;;;;;;-1.76;100.00;102336.50;5048887;28;20029;-73
2023/02/07 03:02:36;;;;;;;23.85;9.90;;;;;;;-1.80;100.00;102342.28;5011981;28;20030;-73
2023/02/07 03:05:23;;;;;;;21.52;8.88;;;;;;;-1.86;100.00;102344.84;5037814;28;20088;-73
2023/02/07 03:08:09;;;;;;;19.63;8.88;;;;;;;-1.86;100.00;102345.69;5067959;28;20059;-73
2023/02/07 03:10:35;;;;;;;24.35;9.38;;;;;;;-1.86;100.00;102350.28;5022878;28;20412;-73
2023/02/07 03:13:14;;;;;;;20.30;8.43;;;;;;;-1.84;100.00;102342.78;5046778;28;20112;-73
2023/02/07 03:15:51;;;;;;;22.02;9.35;;;;;;;-1.90;100.00;102347.03;5005249;28;20029;-73
2023/02/07 03:18:24;;;;;;;22.30;8.70;;;;;;;-1.95;100.00;102335.81;5044960;28;20044;-73
2023/02/07 03:21:06;;;;;;;21.92;9.02;;;;;;;-1.92;100.00;102329.16;5035576;28;20401;-73
2023/02/07 03:23:32;;;;;;;21.60;8.98;;;;;;;-1.95;100.00;102340.38;5029370;28;20036;-73
2023/02/07 03:25:57;;;;;;;19.60;8.55;;;;;;;-1.89;100.00;102328.84;5031330;28;20034;-73
2023/02/07 03:28:23;;;;;;;22.27;8.30;;;;;;;-1.92;100.00;102326.44;5035006;28;20605;-73
2023/02/07 03:30:49;;;;;;;23.23;8.52;;;;;;;-1.95;100.00;102330.38;5022351;28;20066;-73
2023/02/07 03:33:14;;;;;;;17.90;8.70;;;;;;;-1.98;100.00;102314.34;5054110;28;20078;-73
2023/02/07 03:35:45;;;;;;;19.30;7.97;;;;;;;-1.93;100.00;102313.84;5034827;28;20390;-72
2023/02/07 03:38:11;;;;;;;20.65;7.70;;;;;;;-1.93;100.00;102313.84;5015748;28;20029;-73
2023/02/07 03:40:40;;;;;;;21.92;8.57;;;;;;;-1.97;100.00;102317.94;5013051;28;20542;-73
2023/02/07 03:43:28;;;;;;;23.92;8.48;;;;;;;-1.94;100.00;102310.28;5031963;28;20116;-73
2023/02/07 03:45:54;;;;;;;24.98;8.30;;;;;;;-1.97;100.00;102305.16;5023638;28;20040;-73
2023/02/07 03:48:20;;;;;;;24.58;8.68;;;;;;;-1.97;100.00;102301.59;4985491;28;20030;-73
2023/02/07 03:50:47;;;;;;;26.38;9.98;;;;;;;-2.02;100.00;102292.03;5029774;28;20059;-73
2023/02/07 03:53:14;;;;;;;32.67;10.85;;;;;;;-2.04;100.00;102294.06;5000985;28;20045;-73
2023/02/07 03:55:39;;;;;;;28.60;10.90;;;;;;;-2.10;100.00;102300.19;5046257;28;20036;-73
2023/02/07 03:58:06;;;;;;;26.58;10.23;;;;;;;-2.05;100.00;102299.69;5003542;28;20031;-73
2023/02/07 04:00:32;;;;;;;37.42;10.30;;;;;;;-2.09;100.00;102284.69;5057572;28;20032;-73
2023/02/07 04:02:57;;;;;;;28.58;10.30;;;;;;;-2.06;100.00;102289.84;5070496;28;20374;-72
2023/02/07 04:05:23;;;;;;;28.10;9.55;;;;;;;-2.08;100.00;102287.28;5050669;28;20090;-73
2023/02/07 04:07:48;;;;;;;25.05;9.07;;;;;;;-2.11;100.00;102292.22;5037836;28;20505;-73
2023/02/07 04:10:14;;;;;;;27.05;8.77;;;;;;;-2.11;100.00;102292.22;5049579;28;20021;-73
2023/02/07 04:12:39;;;;;;;23.90;9.23;;;;;;;-2.15;100.00;102286.22;5023722;28;20028;-73
2023/02/07 04:15:05;;;;;;;29.45;9.38;;;;;;;-2.19;100.00;102300.34;5029969;28;20032;-73
2023/02/07 04:17:31;;;;;;;33.10;10.55;;;;;;;-2.14;100.00;102298.84;5033380;28;20426;-74
2023/02/07 04:19:56;;;;;;;25.08;8.95;;;;;;;-2.18;100.00;102292.00;5021814;28;20021;-73
2023/02/07 04:22:22;;;;;;;27.23;9.55;;;;;;;-2.22;100.00;102293.38;5036352;28;20433;-73
2023/02/07 04:24:48;;;;;;;24.13;9.45;;;;;;;-2.28;100.00;102286.72;5017809;28;20022;-73
2023/02/07 04:27:13;;;;;;;31.08;9.45;;;;;;;-2.30;100.00;102287.91;5014775;28;20033;-72
2023/02/07 04:29:39;;;;;;;32.35;9.77;;;;;;;-2.31;100.00;102287.06;5001125;28;20044;-73
2023/02/07 04:32:04;;;;;;;23.45;9.15;;;;;;;-2.31;100.00;102294.38;5017679;28;20029;-73
2023/02/07 04:34:29;;;;;;;23.00;8.75;;;;;;;-2.29;100.00;102298.59;5026864;28;20068;-73
2023/02/07 04:36:55;;;;;;;23.75;8.95;;;;;;;-2.30;100.00;102287.91;5047307;28;20060;-73
2023/02/07 04:39:20;;;;;;;26.67;9.15;;;;;;;-2.29;100.00;102287.72;5017519;28;20414;-72
2023/02/07 04:41:46;;;;;;;27.50;9.35;;;;;;;-2.26;100.00;102286.53;5030397;28;20095;-73
2023/02/07 04:44:11;;;;;;;23.80;9.00;;;;;;;-2.29;100.00;102276.84;5035141;28;20418;-73
2023/02/07 04:46:37;;;;;;;26.77;9.05;;;;;;;-2.28;100.00;102275.84;5017294;28;20473;-73
2023/02/07 04:49:03;;;;;;;30.67;9.73;;;;;;;-2.24;100.00;102276.34;5033657;28;20470;-72
2023/02/07 04:51:29;;;;;;;32.28;9.85;;;;;;;-2.24;100.00;102279.06;5030432;28;20033;-73
2023/02/07 04:53:55;;;;;;;26.60;9.10;;;;;;;-2.26;100.00;102267.47;5046282;28;20029;-73
2023/02/07 04:56:21;;;;;;;31.27;9.80;;;;;;;-2.22;100.00;102282.47;5036364;28;20026;-73
2023/02/07 04:58:46;;;;;;;28.17;9.07;;;;;;;-2.19;100.00;102273.97;5033823;28;20085;-73
2023/02/07 05:01:12;;;;;;;20.75;8.98;;;;;;;-2.16;100.00;102281.81;5014075;28;20029;-72
2023/02/07 05:03:37;;;;;;;22.42;8.32;;;;;;;-2.14;100.00;102287.94;5028222;28;20525;-73
2023/02/07 05:06:03;;;;;;;21.77;8.70;;;;;;;-2.16;100.00;102295.41;5034549;28;20029;-73
2023/02/07 05:08:29;;;;;;;17.42;8.27;;;;;;;-2.20;100.00;102294.06;5012481;28;20036;-72
2023/02/07 05:10:54;;;;;;;24.15;9.02;;;;;;;-2.21;100.00;102289.63;5051064;28;20029;-73
2023/02/07 05:13:20;;;;;;;31.95;9.50;;;;;;;-2.20;100.00;102283.19;5046314;28;20112;-72
2023/02/07 05:15:46;;;;;;;28.40;8.82;;;;;;;-2.25;100.00;102280.94;5034411;28;20029;-72
2023/02/07 05:18:11;;;;;;;29.00;8.77;;;;;;;-2.23;100.00;102269.03;5004892;28;20470;-73
2023/02/07 05:20:36;;;;;;;25.05;8.77;;;;;;;-2.27;100.00;102260.34;5033784;28;20037;-73
2023/02/07 05:23:02;;;;;;;25.02;8.50;;;;;;;-2.24;100.00;102260.00;5038854;28;20037;-73
2023/02/07 05:25:27;;;;;;;30.27;10.10;;;;;;;-2.27;100.00;102254.91;5019977;28;20509;-73
2023/02/07 05:27:53;;;;;;;29.73;10.27;;;;;;;-2.26;100.00;102253.88;5037223;28;20025;-72
2023/02/07 05:30:19;;;;;;;21.80;9.45;;;;;;;-2.29;100.00;102248.78;5040170;28;20021;-72
2023/02/07 05:33:02;;;;;;;27.23;9.77;;;;;;;-2.28;100.00;102253.22;5057400;28;20029;-73
2023/02/07 05:35:35;;;;;;;32.20;12.80;;;;;;;-2.25;100.00;102248.28;5028986;28;20032;-72
2023/02/07 05:38:01;;;;;;;29.30;9.77;;;;;;;-2.23;100.00;102249.97;5045628;28;20029;-72
2023/02/07 05:40:26;;;;;;;29.67;10.50;;;;;;;-2.23;100.00;102241.81;5039990;28;20054;-73
2023/02/07 05:42:53;;;;;;;31.00;11.57;;;;;;;-2.26;100.00;102245.72;5037107;28;20029;-72
2023/02/07 05:45:19;;;;;;;26.77;11.10;;;;;;;-2.19;100.00;102254.09;5020578;28;20025;-73
2023/02/07 05:47:44;;;;;;;38.55;11.98;;;;;;;-2.24;100.00;102260.00;5052111;28;20385;-73
2023/02/07 05:50:10;;;;;;;35.17;11.73;;;;;;;-2.29;100.00;102270.53;5036988;28;20037;-73
2023/02/07 05:52:35;;;;;;;27.13;10.80;;;;;;;-2.26;100.00;102272.94;5033521;28;20482;-72
2023/02/07 05:55:01;;;;;;;28.80;11.32;;;;;;;-2.25;100.00;102278.22;5049911;28;20034;-73
2023/02/07 05:57:26;;;;;;;30.35;10.65;;;;;;;-2.23;100.00;102266.31;5036675;28;20037;-73
2023/02/07 05:59:52;;;;;;;28.48;10.23;;;;;;;-2.24;100.00;102273.63;5023836;28;20036;-73
2023/02/07 06:02:17;;;;;;;24.80;9.52;;;;;;;-2.20;100.00;102271.41;5051153;28;20478;-73
2023/02/07 06:04:43;;;;;;;25.30;10.25;;;;;;;-2.28;100.00;102281.28;5036489;28;20034;-73
2023/02/07 06:07:08;;;;;;;27.23;10.43;;;;;;;-2.23;100.00;102288.94;5036587;28;20033;-73
2023/02/07 06:09:34;;;;;;;30.63;9.63;;;;;;;-2.24;100.00;102281.78;5048721;28;20059;-73
2023/02/07 06:12:00;;;;;;;27.70;10.93;;;;;;;-2.25;100.00;102294.56;5036610;28;20449;-73
2023/02/07 06:14:25;;;;;;;26.75;11.25;;;;;;;-2.29;100.00;102295.88;5018232;28;20029;-73
2023/02/07 06:16:50;;;;;;;32.80;10.98;;;;;;;-2.32;100.00;102296.22;5048949;28;20029;-73
2023/02/07 06:19:16;;;;;;;34.13;12.43;;;;;;;-2.41;100.00;102297.22;5038487;28;20033;-73
2023/02/07 06:21:41;;;;;;;31.70;14.15;;;;;;;-2.43;100.00;102304.69;5037440;28;20022;-73
2023/02/07 06:24:07;;;;;;;40.92;14.90;;;;;;;-2.54;100.00;102316.72;5036105;28;20540;-73
2023/02/07 06:26:33;;;;;;;46.00;17.88;;;;;;;-2.50;100.00;102312.66;5048208;28;20036;-73
2023/02/07 06:28:59;;;;;;;46.33;18.27;;;;;;;-2.54;100.00;102308.56;5038228;28;20022;-73
2023/02/07 06:31:24;;;;;;;54.60;17.75;;;;;;;-2.52;100.00;102305.69;5044558;28;20032;-73
2023/02/07 06:33:50;;;;;;;38.45;15.70;;;;;;;-2.50;100.00;102311.81;5050382;28;20034;-73
2023/02/07 06:36:15;;;;;;;46.80;16.00;;;;;;;-2.50;100.00;102309.94;5018971;28;20047;-73
2023/02/07 06:38:40;;;;;;;46.55;17.83;;;;;;;-2.51;100.00;102312.81;5021165;28;20115;-73
2023/02/07 06:41:09;;;;;;;43.45;15.65;;;;;;;-2.49;100.00;102317.06;5045086;28;20425;-73
2023/02/07 06:43:38;;;;;;;39.88;14.82;;;;;;;-2.48;100.00;102320.66;5036933;28;20116;-73
2023/02/07 06:46:03;;;;;;;49.42;17.17;;;;;;;-2.49;100.00;102317.06;5029744;28;20041;-73
2023/02/07 06:48:29;;;;;;;62.25;18.77;;;;;;;-2.51;100.00;102310.97;5015886;28;20030;-67
2023/02/07 06:50:54;;;;;;;52.35;17.10;;;;;;;-2.47;100.00;102314.22;5032390;28;20025;-73
2023/02/07 06:53:20;;;;;;;43.92;14.57;;;;;;;-2.55;100.00;102306.84;5043182;28;20032;-73
2023/02/07 06:55:45;;;;;;;41.00;15.63;;;;;;;-2.53;100.00;102313.00;5009231;28;20025;-74
2023/02/07 06:58:11;;;;;;;40.17;13.88;;;;;;;-2.57;100.00;102319.75;5032425;28;20037;-73
2023/02/07 07:00:36;;;;;;;38.33;13.55;;;;;;;-2.56;100.00;102305.16;5002907;28;20044;-83
2023/02/07 07:03:02;;;;;;;51.20;16.13;;;;;;;-2.60;100.00;102303.78;5019371;28;20087;-78
2023/02/07 07:05:28;;;;;;;42.75;15.18;;;;;;;-2.60;100.00;102311.09;5015439;28;20088;-73
2023/02/07 07:07:54;;;;;;;37.88;13.85;;;;;;;-2.55;100.00;102322.34;5048400;28;20025;-72
2023/02/07 07:10:20;;;;;;;43.08;14.90;;;;;;;-2.52;100.00;102322.84;5019072;28;20029;-73
2023/02/07 07:12:46;;;;;;;36.08;12.98;;;;;;;-2.51;100.00;102319.13;5002670;28;20492;-73
2023/02/07 07:15:11;;;;;;;31.45;12.13;;;;;;;-2.47;100.00;102327.81;5048069;28;20429;-72
2023/02/07 07:17:37;;;;;;;28.83;11.93;;;;;;;-2.48;100.00;102335.13;5038133;28;20033;-73
2023/02/07 07:20:02;;;;;;;29.13;10.75;;;;;;;-2.49;100.00;102327.13;5036244;28;20029;-73
2023/02/07 07:22:28;;;;;;;30.60;12.60;;;;;;;-2.50;100.00;102339.88;5035147;28;20057;-73
2023/02/07 07:24:54;;;;;;;35.42;12.43;;;;;;;-2.49;100.00;102363.34;5035101;28;20071;-73
2023/02/07 07:27:19;;;;;;;29.35;12.68;;;;;;;-2.54;100.00;102351.22;5035995;28;20025;-73
2023/02/07 07:29:45;;;;;;;28.83;12.13;;;;;;;-2.59;100.00;102340.84;5035875;28;20059;-73
2023/02/07 07:32:11;;;;;;;48.75;14.80;;;;;;;-2.68;100.00;102325.50;5050928;28;20624;-73
2023/02/07 07:34:37;;;;;;;36.60;14.52;;;;;;;-2.72;100.00;102335.00;5044053;28;20029;-73
2023/02/07 07:37:02;;;;;;;39.58;14.65;;;;;;;-2.76;100.00;102356.25;5036278;28;20040;-73
2023/02/07 07:39:28;;;;;;;43.85;14.60;;;;;;;-2.79;100.00;102363.84;5034991;28;20152;-73
2023/02/07 07:41:53;;;;;;;39.28;15.05;;;;;;;-2.82;100.00;102365.00;5036823;28;20025;-72
2023/02/07 07:44:19;;;;;;;41.13;14.93;;;;;;;-2.81;100.00;102360.47;5026273;28;20037;-73
2023/02/07 07:46:44;;;;;;;45.00;17.10;;;;;;;-2.82;100.00;102356.84;5030631;28;20026;-73
2023/02/07 07:49:10;;;;;;;44.90;16.98;;;;;;;-2.79;100.00;102358.41;5039465;28;20033;-73
2023/02/07 07:51:37;;;;;;;40.13;15.77;;;;;;;-2.76;100.00;102363.53;5035425;28;20022;-74
2023/02/07 07:54:03;;;;;;;40.30;14.68;;;;;;;-2.74;100.00;102367.78;5047694;28;20112;-73
2023/02/07 07:56:28;;;;;;;38.50;14.45;;;;;;;-2.63;100.00;102363.94;5019186;28;20018;-73
2023/02/07 07:58:55;;;;;;;48.20;15.15;;;;;;;-2.63;100.00;102363.94;5035733;28;20041;-73
2023/02/07 08:01:20;;;;;;;45.65;15.73;;;;;;;-2.60;100.00;102355.47;5042819;28;20490;-73
2023/02/07 08:03:46;;;;;;;36.67;15.63;;;;;;;-2.58;100.00;102352.59;5018107;28;20104;-73
2023/02/07 08:06:11;;;;;;;40.15;15.57;;;;;;;-2.55;100.00;102349.53;5034243;28;20057;-73
2023/02/07 08:08:37;;;;;;;39.28;14.85;;;;;;;-2.48;100.00;102345.13;5060979;28;20032;-73
2023/02/07 08:11:03;;;;;;;38.13;14.93;;;;;;;-2.44;100.00;102345.69;5049977;28;20037;-73
2023/02/07 08:13:28;;;;;;;39.88;15.93;;;;;;;-2.37;100.00;102354.88;5030678;28;20025;-73
2023/02/07 08:15:54;;;;;;;35.85;15.52;;;;;;;-2.28;100.00;102357.47;5033453;28;20033;-73
2023/02/07 08:18:19;;;;;;;36.17;14.48;;;;;;;-2.19;100.00;102352.06;5056968;28;20029;-73
2023/02/07 08:20:45;;;;;;;40.42;15.27;;;;;;;-2.13;100.00;102352.25;5036024;28;20474;-73
2023/02/07 08:23:10;;;;;;;40.72;14.45;;;;;;;-1.97;100.00;102353.34;5044652;28;20036;-73
2023/02/07 08:25:36;;;;;;;40.47;13.98;;;;;;;-1.86;100.00;102355.75;5037446;28;20076;-72
2023/02/07 08:28:02;;;;;;;35.60;14.75;;;;;;;-1.68;100.00;102356.44;5033960;28;20113;-73
2023/02/07 08:30:27;;;;;;;37.45;14.35;;;;;;;-1.59;100.00;102351.84;5035810;28;20538;-73
2023/02/07 08:32:54;;;;;;;39.88;14.02;;;;;;;-1.48;100.00;102343.34;5054054;28;20040;-73
2023/02/07 08:35:20;;;;;;;45.47;15.85;;;;;;;-1.38;100.00;102346.75;5036857;28;20029;-73
2023/02/07 08:37:45;;;;;;;38.90;15.18;;;;;;;-1.22;100.00;102359.53;5038053;28;20029;-72
2023/02/07 08:40:11;;;;;;;38.08;14.63;;;;;;;-1.13;100.00;102347.59;5045143;28;20057;-73
2023/02/07 08:42:36;;;;;;;38.05;14.07;;;;;;;-0.97;100.00;102345.88;5025825;28;20033;-73
2023/02/07 08:45:04;;;;;;;42.58;15.10;;;;;;;-0.88;100.00;102338.53;5038348;28;20037;-72
2023/02/07 08:47:30;;;;;;;46.90;16.38;;;;;;;-0.76;100.00;102335.25;5041769;28;20068;-73
2023/02/07 08:49:55;;;;;;;39.03;15.10;;;;;;;-0.64;100.00;102341.22;5031756;28;20029;-72
2023/02/07 08:52:21;;;;;;;36.33;13.95;;;;;;;-0.56;100.00;102340.31;5026158;28;20036;-72
2023/02/07 08:54:46;;;;;;;42.17;14.35;;;;;;;-0.42;100.00;102336.84;5037128;28;20018;-73
2023/02/07 08:57:12;;;;;;;36.03;13.75;;;;;;;-0.28;100.00;102330.66;5047629;28;20024;-73
2023/02/07 08:59:37;;;;;;;34.38;13.93;;;;;;;-0.09;100.00;102325.78;5041094;28;20029;-73
2023/02/07 09:02:03;;;;;;;32.03;13.07;;;;;;;-0.01;100.00;102336.66;5033719;28;20030;-73
2023/02/07 09:04:29;;;;;;;38.13;14.93;;;;;;;0.09;100.00;102337.28;5049529;28;20040;-73
2023/02/07 09:06:54;;;;;;;28.10;13.27;;;;;;;0.24;100.00;102347.44;5042801;28;20431;-73
2023/02/07 09:09:20;;;;;;;39.85;13.45;;;;;;;0.34;100.00;102350.81;5034722;28;20029;-73
2023/02/07 09:11:46;;;;;;;35.03;13.60;;;;;;;0.41;100.00;102343.56;5034600;28;20029;-73
2023/02/07 09:14:11;;;;;;;38.25;14.02;;;;;;;0.53;100.00;102341.25;5039866;28;20039;-73
2023/02/07 09:16:37;;;;;;;35.47;14.50;;;;;;;0.62;100.00;102337.44;5044761;28;20026;-73
2023/02/07 09:19:02;;;;;;;36.20;14.85;;;;;;;0.71;100.00;102344.53;5016409;28;20032;-73
2023/02/07 09:21:30;;;;;;;39.65;14.60;;;;;;;0.75;100.00;102332.16;5044811;28;20037;-73
2023/02/07 09:23:55;;;;;;;37.33;13.88;;;;;;;0.74;100.00;102340.56;5034507;28;20037;-73
2023/02/07 09:26:21;;;;;;;40.17;14.00;;;;;;;0.90;100.00;102359.56;5043788;28;20029;-73
2023/02/07 09:28:47;;;;;;;33.83;13.18;;;;;;;0.96;100.00;102347.03;5019913;28;20068;-73
2023/02/07 09:31:13;;;;;;;37.83;13.93;;;;;;;1.04;100.00;102349.69;5041281;28;20542;-73
2023/02/07 09:33:39;;;;;;;33.58;14.10;;;;;;;1.12;100.00;102346.88;5050481;28;20087;-73
2023/02/07 09:36:05;;;;;;;37.90;12.68;;;;;;;1.20;100.00;102345.94;5034429;28;20037;-76
2023/02/07 09:38:30;;;;;;;37.38;13.65;;;;;;;1.28;100.00;102343.97;4997648;28;20030;-76
2023/02/07 09:40:57;;;;;;;29.42;12.63;;;;;;;1.33;100.00;102337.91;5020519;28;20022;-76
2023/02/07 09:43:28;;;;;;;32.03;12.13;;;;;;;1.36;100.00;102340.28;5013551;28;20022;-74
2023/02/07 09:45:58;;;;;;;31.35;11.90;;;;;;;1.44;100.00;102337.44;5025623;28;20117;-73
2023/02/07 09:48:33;;;;;;;38.20;12.88;;;;;;;1.48;100.00;102336.06;5029884;28;20026;-73
2023/02/07 09:51:00;;;;;;;35.72;13.00;;;;;;;1.61;100.00;102327.16;5018947;28;20048;-73
2023/02/07 09:53:29;;;;;;;31.75;13.00;;;;;;;1.68;100.00;102327.25;5054911;28;20060;-72
2023/02/07 09:55:57;;;;;;;30.13;11.70;;;;;;;1.72;100.00;102334.88;5031047;28;20481;-73
2023/02/07 09:58:56;;;;;;;27.30;11.45;;;;;;;1.82;100.00;102318.16;5040794;28;20600;-73
2023/02/07 10:01:28;;;;;;;30.13;11.63;;;;;;;1.95;100.00;102326.56;5040743;28;20076;-73
2023/02/07 10:04:12;;;;;;;26.73;10.93;;;;;;;2.07;100.00;102326.88;5036863;28;20041;-73
2023/02/07 10:06:38;;;;;;;23.88;9.98;;;;;;;2.09;100.00;102323.94;5038054;28;20511;-73
2023/02/07 10:09:04;;;;;;;25.00;10.82;;;;;;;2.22;100.00;102318.59;5020294;28;20033;-73
2023/02/07 10:11:53;;;;;;;19.75;9.35;;;;;;;2.31;100.00;102317.44;5020342;28;20087;-72
2023/02/07 10:14:40;;;;;;;23.10;8.48;;;;;;;2.35;100.00;102323.41;5040565;28;20037;-73
2023/02/07 10:17:36;;;;;;;27.52;9.93;;;;;;;2.50;100.00;102317.84;5049500;28;20036;-72
2023/02/07 10:20:19;;;;;;;18.88;7.75;;;;;;;2.55;100.00;102312.63;5037377;28;20108;-72
2023/02/07 10:23:07;;;;;;;16.25;5.85;;;;;;;2.60;100.00;102323.84;5021983;28;20033;-73
2023/02/07 10:25:48;;;;;;;17.33;7.60;;;;;;;2.67;100.00;102319.25;5039602;28;20061;-73
2023/02/07 10:28:14;;;;;;;30.92;11.75;;;;;;;2.73;100.00;102310.25;5036171;28;20022;-73
2023/02/07 10:30:48;;;;;;;20.65;9.80;;;;;;;2.79;100.00;102314.94;5039629;28;20033;-72
2023/02/07 10:33:15;;;;;;;16.55;7.80;;;;;;;2.81;100.00;102304.59;5036148;28;20038;-73
2023/02/07 10:35:40;;;;;;;15.98;7.47;;;;;;;2.88;100.00;102313.75;5048299;28;20037;-74
2023/02/07 10:38:31;;;;;;;17.42;7.57;;;;;;;2.87;100.00;102306.56;5036323;28;20029;-73
2023/02/07 10:41:43;;;;;;;17.88;7.18;;;;;;;2.90;100.00;102319.91;5032786;28;20053;-73
2023/02/07 10:44:12;;;;;;;19.48;7.25;;;;;;;3.02;100.00;102303.72;5045435;28;20063;-73
2023/02/07 10:46:38;;;;;;;19.90;7.53;;;;;;;3.10;100.00;102311.81;5003519;28;20121;-73
2023/02/07 10:49:03;;;;;;;17.40;7.63;;;;;;;3.21;100.00;102318.63;5028923;28;20037;-72
2023/02/07 10:51:36;;;;;;;12.93;6.20;;;;;;;3.30;100.00;102322.91;5046148;28;20053;-73
2023/02/07 10:54:08;;;;;;;17.45;6.88;;;;;;;3.36;100.00;102318.50;5009203;28;20072;-73
2023/02/07 10:56:36;;;;;;;12.10;5.67;;;;;;;3.24;100.00;102315.50;5025084;28;20056;-72
2023/02/07 10:59:01;;;;;;;14.35;5.95;;;;;;;3.26;100.00;102316.16;5036931;28;20045;-72
2023/02/07 11:01:28;;;;;;;15.48;6.47;;;;;;;3.36;100.00;102335.00;5004940;28;20064;-72
2023/02/07 11:03:54;;;;;;;15.77;6.45;;;;;;;3.42;100.00;102322.34;5039942;28;20033;-73
2023/02/07 11:06:32;;;;;;;16.10;6.10;;;;;;;3.50;100.00;102327.69;5034090;28;20049;-73
2023/02/07 11:09:22;;;;;;;15.20;6.47;;;;;;;3.55;100.00;102315.03;5015584;28;20033;-72
2023/02/07 11:11:51;;;;;;;11.60;6.25;;;;;;;3.61;100.00;102326.25;5054017;28;20698;-73